sensor_id;sensor_type;location;lat;lon;timestamp;temperature;humidity
15922;DHT22;8060;50.948;3.146;2023-09-19T05:58:07;14.60;99.90
15922;DHT22;8060;50.948;3.146;2023-09-19T06:00:37;14.70;99.90
15922;DHT22;8060;50.948;3.146;2023-09-19T06:03:06;14.70;99.90
15922;DHT22;8060;50.948;3.146;2023-09-19T06:05:34;14.80;99.90
15922;DHT22;8060;50.948;3.146;2023-09-19T06:08:03;14.80;99.90
15922;DHT22;8060;50.948;3.146;2023-09-19T06:10:35;14.90;99.90
15922;DHT22;8060;50.948;3.146;2023-09-19T06:13:04;15.00;99.90
15922;DHT22;8060;50.948;3.146;2023-09-19T06:15:34;15.00;99.90
15922;DHT22;8060;50.948;3.146;2023-09-19T06:18:03;15.00;99.90
15922;DHT22;8060;50.948;3.146;2023-09-19T06:20:32;15.00;99.90
15922;DHT22;8060;50.948;3.146;2023-09-19T06:23:01;15.00;99.90
15922;DHT22;8060;50.948;3.146;2023-09-19T06:25:30;15.10;99.90
15922;DHT22;8060;50.948;3.146;2023-09-19T06:27:58;15.00;99.90
15922;DHT22;8060;50.948;3.146;2023-09-19T06:30:26;15.10;99.90
15922;DHT22;8060;50.948;3.146;2023-09-19T06:32:58;15.20;99.90
15922;DHT22;8060;50.948;3.146;2023-09-19T06:35:28;15.10;99.90
15922;DHT22;8060;50.948;3.146;2023-09-19T06:37:57;15.20;99.90
15922;DHT22;8060;50.948;3.146;2023-09-19T06:40:25;15.20;99.90
15922;DHT22;8060;50.948;3.146;2023-09-19T06:42:55;15.30;99.90
15922;DHT22;8060;50.948;3.146;2023-09-19T06:45:23;15.30;99.90
15922;DHT22;8060;50.948;3.146;2023-09-19T06:47:54;15.30;99.90
15922;DHT22;8060;50.948;3.146;2023-09-19T06:50:27;15.30;99.90
15922;DHT22;8060;50.948;3.146;2023-09-19T06:52:57;15.40;99.90
15922;DHT22;8060;50.948;3.146;2023-09-19T06:55:26;15.40;99.90
15922;DHT22;8060;50.948;3.146;2023-09-19T06:57:59;15.50;99.90
15922;DHT22;8060;50.948;3.146;2023-09-19T07:00:27;15.50;99.90
15922;DHT22;8060;50.948;3.146;2023-09-19T07:02:59;15.50;99.90
15922;DHT22;8060;50.948;3.146;2023-09-19T07:05:30;15.60;99.90
15922;DHT22;8060;50.948;3.146;2023-09-19T07:07:59;15.70;99.90
15922;DHT22;8060;50.948;3.146;2023-09-19T07:10:28;15.70;99.90
15922;DHT22;8060;50.948;3.146;2023-09-19T07:12:57;15.80;99.90
15922;DHT22;8060;50.948;3.146;2023-09-19T07:15:25;15.80;99.90
15922;DHT22;8060;50.948;3.146;2023-09-19T07:17:54;15.80;99.90
15922;DHT22;8060;50.948;3.146;2023-09-19T07:20:24;15.80;99.90
15922;DHT22;8060;50.948;3.146;2023-09-19T07:22:55;15.90;99.90
15922;DHT22;8060;50.948;3.146;2023-09-19T07:25:23;16.00;99.90
15922;DHT22;8060;50.948;3.146;2023-09-19T07:27:51;15.90;99.90
15922;DHT22;8060;50.948;3.146;2023-09-19T07:30:19;15.90;99.90
15922;DHT22;8060;50.948;3.146;2023-09-19T07:32:47;16.00;99.90
15922;DHT22;8060;50.948;3.146;2023-09-19T07:35:15;16.10;99.90
15922;DHT22;8060;50.948;3.146;2023-09-19T07:37:45;16.20;99.90
15922;DHT22;8060;50.948;3.146;2023-09-19T07:40:19;16.30;99.90
15922;DHT22;8060;50.948;3.146;2023-09-19T07:42:48;16.40;99.90
15922;DHT22;8060;50.948;3.146;2023-09-19T07:45:17;16.40;99.90
15922;DHT22;8060;50.948;3.146;2023-09-19T07:47:45;16.40;99.90
15922;DHT22;8060;50.948;3.146;2023-09-19T07:50:14;16.50;99.90
15922;DHT22;8060;50.948;3.146;2023-09-19T07:52:43;16.50;99.90
15922;DHT22;8060;50.948;3.146;2023-09-19T07:55:11;16.50;99.90
15922;DHT22;8060;50.948;3.146;2023-09-19T07:57:45;16.50;99.90
15922;DHT22;8060;50.948;3.146;2023-09-19T08:00:14;16.50;99.90
15922;DHT22;8060;50.948;3.146;2023-09-19T08:02:43;16.60;99.90
15922;DHT22;8060;50.948;3.146;2023-09-19T08:05:13;16.60;99.90
15922;DHT22;8060;50.948;3.146;2023-09-19T08:07:45;16.70;99.90
15922;DHT22;8060;50.948;3.146;2023-09-19T08:10:15;16.70;99.90
15922;DHT22;8060;50.948;3.146;2023-09-19T08:12:48;16.90;99.90
15922;DHT22;8060;50.948;3.146;2023-09-19T08:15:22;16.90;99.90
15922;DHT22;8060;50.948;3.146;2023-09-19T08:17:51;17.00;99.90
15922;DHT22;8060;50.948;3.146;2023-09-19T08:20:20;17.10;99.90
15922;DHT22;8060;50.948;3.146;2023-09-19T08:22:49;17.10;99.90
15922;DHT22;8060;50.948;3.146;2023-09-19T08:25:20;17.20;99.90
15922;DHT22;8060;50.948;3.146;2023-09-19T08:27:50;17.30;99.90
15922;DHT22;8060;50.948;3.146;2023-09-19T08:30:19;17.40;99.90
15922;DHT22;8060;50.948;3.146;2023-09-19T08:32:51;17.50;99.90
15922;DHT22;8060;50.948;3.146;2023-09-19T08:35:25;17.50;99.90
15922;DHT22;8060;50.948;3.146;2023-09-19T08:37:53;17.50;99.90
15922;DHT22;8060;50.948;3.146;2023-09-19T08:40:22;17.60;99.90
15922;DHT22;8060;50.948;3.146;2023-09-19T08:42:53;17.60;99.90
15922;DHT22;8060;50.948;3.146;2023-09-19T08:45:22;17.70;99.90
15922;DHT22;8060;50.948;3.146;2023-09-19T08:47:56;17.80;99.90
15922;DHT22;8060;50.948;3.146;2023-09-19T08:50:29;17.90;99.90
15922;DHT22;8060;50.948;3.146;2023-09-19T08:53:01;17.90;99.90
15922;DHT22;8060;50.948;3.146;2023-09-19T08:55:31;18.00;99.90
15922;DHT22;8060;50.948;3.146;2023-09-19T08:58:04;18.00;99.90
15922;DHT22;8060;50.948;3.146;2023-09-19T09:00:35;17.90;99.90
15922;DHT22;8060;50.948;3.146;2023-09-19T09:03:05;17.90;99.90
15922;DHT22;8060;50.948;3.146;2023-09-19T09:05:37;17.90;99.90
15922;DHT22;8060;50.948;3.146;2023-09-19T09:08:09;17.80;99.90
15922;DHT22;8060;50.948;3.146;2023-09-19T09:10:37;17.90;99.90
15922;DHT22;8060;50.948;3.146;2023-09-19T09:13:09;17.90;99.90
15922;DHT22;8060;50.948;3.146;2023-09-19T09:15:41;18.00;99.90
15922;DHT22;8060;50.948;3.146;2023-09-19T09:18:11;18.10;99.90
15922;DHT22;8060;50.948;3.146;2023-09-19T09:20:40;18.30;99.90
15922;DHT22;8060;50.948;3.146;2023-09-19T09:23:08;18.60;99.90
15922;DHT22;8060;50.948;3.146;2023-09-19T09:25:50;18.80;99.90
15922;DHT22;8060;50.948;3.146;2023-09-19T09:28:24;18.80;99.90
15922;DHT22;8060;50.948;3.146;2023-09-19T09:30:53;18.90;99.90
15922;DHT22;8060;50.948;3.146;2023-09-19T09:33:22;18.90;99.90
15922;DHT22;8060;50.948;3.146;2023-09-19T09:35:51;19.10;99.90
15922;DHT22;8060;50.948;3.146;2023-09-19T09:38:20;19.30;99.90
15922;DHT22;8060;50.948;3.146;2023-09-19T09:40:53;19.40;99.90
15922;DHT22;8060;50.948;3.146;2023-09-19T09:43:30;19.40;99.90
15922;DHT22;8060;50.948;3.146;2023-09-19T09:46:10;19.30;99.90
15922;DHT22;8060;50.948;3.146;2023-09-19T09:49:06;19.30;99.90
15922;DHT22;8060;50.948;3.146;2023-09-19T09:51:49;19.50;99.90
15922;DHT22;8060;50.948;3.146;2023-09-19T09:54:27;19.70;99.90
15922;DHT22;8060;50.948;3.146;2023-09-19T09:57:02;20.20;99.90
15922;DHT22;8060;50.948;3.146;2023-09-19T09:59:49;20.60;99.90
15922;DHT22;8060;50.948;3.146;2023-09-19T10:02:18;20.90;99.90
15922;DHT22;8060;50.948;3.146;2023-09-19T10:04:52;20.80;99.90
15922;DHT22;8060;50.948;3.146;2023-09-19T10:07:27;21.00;99.90
15922;DHT22;8060;50.948;3.146;2023-09-19T10:10:00;21.20;99.90
15922;DHT22;8060;50.948;3.146;2023-09-19T10:12:45;21.20;99.90
15922;DHT22;8060;50.948;3.146;2023-09-19T10:15:18;21.30;99.90
15922;DHT22;8060;50.948;3.146;2023-09-19T10:17:47;21.40;99.90
15922;DHT22;8060;50.948;3.146;2023-09-19T10:20:17;21.50;99.90
15922;DHT22;8060;50.948;3.146;2023-09-19T10:23:05;21.60;99.90
15922;DHT22;8060;50.948;3.146;2023-09-19T10:25:37;21.70;99.90
15922;DHT22;8060;50.948;3.146;2023-09-19T10:28:06;21.30;99.90
15922;DHT22;8060;50.948;3.146;2023-09-19T10:30:43;21.00;99.90
15922;DHT22;8060;50.948;3.146;2023-09-19T10:33:13;20.90;99.90
15922;DHT22;8060;50.948;3.146;2023-09-19T10:35:44;21.00;99.90
15922;DHT22;8060;50.948;3.146;2023-09-19T10:38:13;21.30;99.90
15922;DHT22;8060;50.948;3.146;2023-09-19T10:40:49;21.70;99.90
15922;DHT22;8060;50.948;3.146;2023-09-19T10:43:18;21.80;99.90
15922;DHT22;8060;50.948;3.146;2023-09-19T10:45:50;22.00;99.90
15922;DHT22;8060;50.948;3.146;2023-09-19T10:48:20;21.80;99.90
15922;DHT22;8060;50.948;3.146;2023-09-19T10:50:58;21.70;99.90
15922;DHT22;8060;50.948;3.146;2023-09-19T10:53:41;21.50;99.90
15922;DHT22;8060;50.948;3.146;2023-09-19T10:56:11;21.30;99.90
15922;DHT22;8060;50.948;3.146;2023-09-19T10:58:44;21.40;99.90
15922;DHT22;8060;50.948;3.146;2023-09-19T11:01:14;21.60;99.90
15922;DHT22;8060;50.948;3.146;2023-09-19T11:03:42;21.60;99.90
15922;DHT22;8060;50.948;3.146;2023-09-19T11:06:13;21.60;99.90
15922;DHT22;8060;50.948;3.146;2023-09-19T11:08:57;21.40;99.90
15922;DHT22;8060;50.948;3.146;2023-09-19T11:11:47;21.30;99.90
15922;DHT22;8060;50.948;3.146;2023-09-19T11:14:38;21.30;99.90
15922;DHT22;8060;50.948;3.146;2023-09-19T11:17:42;21.10;99.90
15922;DHT22;8060;50.948;3.146;2023-09-19T11:20:31;21.20;99.90
15922;DHT22;8060;50.948;3.146;2023-09-19T11:23:22;21.00;99.90
15922;DHT22;8060;50.948;3.146;2023-09-19T11:25:50;21.00;99.90
15922;DHT22;8060;50.948;3.146;2023-09-19T11:28:36;21.00;99.90
15922;DHT22;8060;50.948;3.146;2023-09-19T11:34:46;20.70;99.90
15922;DHT22;8060;50.948;3.146;2023-09-19T11:40:35;20.90;99.90
15922;DHT22;8060;50.948;3.146;2023-09-19T11:43:31;21.20;99.90
15922;DHT22;8060;50.948;3.146;2023-09-19T11:46:08;21.30;99.90
15922;DHT22;8060;50.948;3.146;2023-09-19T11:48:41;21.30;99.90
15922;DHT22;8060;50.948;3.146;2023-09-19T11:51:19;21.30;99.90
15922;DHT22;8060;50.948;3.146;2023-09-19T11:53:51;21.40;99.90
15922;DHT22;8060;50.948;3.146;2023-09-19T11:56:20;21.20;99.90
15922;DHT22;8060;50.948;3.146;2023-09-19T11:58:51;21.20;99.90
15922;DHT22;8060;50.948;3.146;2023-09-19T12:01:23;21.30;99.90
15922;DHT22;8060;50.948;3.146;2023-09-19T12:03:56;21.40;99.90
15922;DHT22;8060;50.948;3.146;2023-09-19T12:06:27;21.60;99.90
15922;DHT22;8060;50.948;3.146;2023-09-19T12:08:56;21.40;99.90
15922;DHT22;8060;50.948;3.146;2023-09-19T12:11:29;21.40;99.90
15922;DHT22;8060;50.948;3.146;2023-09-19T12:13:59;21.40;99.90
15922;DHT22;8060;50.948;3.146;2023-09-19T12:16:28;21.30;99.90
15922;DHT22;8060;50.948;3.146;2023-09-19T12:18:57;21.20;99.90
15922;DHT22;8060;50.948;3.146;2023-09-19T12:21:29;21.30;99.90
15922;DHT22;8060;50.948;3.146;2023-09-19T12:24:05;21.20;99.90
15922;DHT22;8060;50.948;3.146;2023-09-19T12:26:40;21.10;99.90
15922;DHT22;8060;50.948;3.146;2023-09-19T12:29:14;21.10;99.90
15922;DHT22;8060;50.948;3.146;2023-09-19T12:31:51;21.10;99.90
15922;DHT22;8060;50.948;3.146;2023-09-19T12:34:25;21.00;99.90
15922;DHT22;8060;50.948;3.146;2023-09-19T12:37:07;21.20;99.90
15922;DHT22;8060;50.948;3.146;2023-09-19T12:39:39;21.20;99.90
15922;DHT22;8060;50.948;3.146;2023-09-19T12:42:10;21.10;99.90
15922;DHT22;8060;50.948;3.146;2023-09-19T12:44:42;21.00;99.90
15922;DHT22;8060;50.948;3.146;2023-09-19T12:47:15;20.90;99.90
15922;DHT22;8060;50.948;3.146;2023-09-19T12:50:09;21.00;99.90
15922;DHT22;8060;50.948;3.146;2023-09-19T12:52:44;21.20;99.90
15922;DHT22;8060;50.948;3.146;2023-09-19T12:55:21;21.20;99.90
15922;DHT22;8060;50.948;3.146;2023-09-19T12:58:00;21.10;99.90
15922;DHT22;8060;50.948;3.146;2023-09-19T13:00:34;21.20;99.90
15922;DHT22;8060;50.948;3.146;2023-09-19T13:03:17;21.00;99.90
15922;DHT22;8060;50.948;3.146;2023-09-19T13:05:50;21.00;99.90
15922;DHT22;8060;50.948;3.146;2023-09-19T13:08:24;20.90;99.90
15922;DHT22;8060;50.948;3.146;2023-09-19T13:11:06;20.90;99.90
15922;DHT22;8060;50.948;3.146;2023-09-19T13:13:38;20.80;99.90
15922;DHT22;8060;50.948;3.146;2023-09-19T13:16:07;20.70;99.90
15922;DHT22;8060;50.948;3.146;2023-09-19T13:18:47;20.70;99.90
15922;DHT22;8060;50.948;3.146;2023-09-19T13:21:27;20.60;99.90
15922;DHT22;8060;50.948;3.146;2023-09-19T13:24:17;20.60;99.90
15922;DHT22;8060;50.948;3.146;2023-09-19T13:26:47;20.80;99.90
15922;DHT22;8060;50.948;3.146;2023-09-19T13:29:15;20.90;99.90
15922;DHT22;8060;50.948;3.146;2023-09-19T13:31:48;21.00;99.90
15922;DHT22;8060;50.948;3.146;2023-09-19T13:34:17;21.10;99.90
15922;DHT22;8060;50.948;3.146;2023-09-19T13:36:45;20.90;99.90
15922;DHT22;8060;50.948;3.146;2023-09-19T13:39:15;20.90;99.90
15922;DHT22;8060;50.948;3.146;2023-09-19T13:41:44;20.70;99.90
15922;DHT22;8060;50.948;3.146;2023-09-19T13:44:15;20.60;99.90
15922;DHT22;8060;50.948;3.146;2023-09-19T13:46:43;20.50;99.90
15922;DHT22;8060;50.948;3.146;2023-09-19T13:49:14;20.40;99.90
15922;DHT22;8060;50.948;3.146;2023-09-19T13:51:42;20.30;99.90
15922;DHT22;8060;50.948;3.146;2023-09-19T13:54:11;20.40;99.90
15922;DHT22;8060;50.948;3.146;2023-09-19T13:56:41;20.40;99.90
15922;DHT22;8060;50.948;3.146;2023-09-19T13:59:09;20.40;99.90
15922;DHT22;8060;50.948;3.146;2023-09-19T14:01:38;20.50;99.90
15922;DHT22;8060;50.948;3.146;2023-09-19T14:04:07;20.50;99.90
15922;DHT22;8060;50.948;3.146;2023-09-19T14:06:36;20.50;99.90
15922;DHT22;8060;50.948;3.146;2023-09-19T14:09:04;20.60;99.90
15922;DHT22;8060;50.948;3.146;2023-09-19T14:11:34;20.70;99.90
15922;DHT22;8060;50.948;3.146;2023-09-19T14:14:02;20.60;99.90
15922;DHT22;8060;50.948;3.146;2023-09-19T14:16:31;20.60;99.90
15922;DHT22;8060;50.948;3.146;2023-09-19T14:19:01;20.70;99.90
15922;DHT22;8060;50.948;3.146;2023-09-19T14:21:30;20.70;99.90
15922;DHT22;8060;50.948;3.146;2023-09-19T14:23:58;20.60;99.90
15922;DHT22;8060;50.948;3.146;2023-09-19T14:26:26;20.50;99.90
15922;DHT22;8060;50.948;3.146;2023-09-19T14:28:54;20.50;99.90
15922;DHT22;8060;50.948;3.146;2023-09-19T14:31:22;20.50;99.90
15922;DHT22;8060;50.948;3.146;2023-09-19T14:33:53;20.50;99.90
15922;DHT22;8060;50.948;3.146;2023-09-19T14:36:25;20.50;99.90
15922;DHT22;8060;50.948;3.146;2023-09-19T14:38:53;20.30;99.90
15922;DHT22;8060;50.948;3.146;2023-09-19T14:41:23;20.30;99.90
15922;DHT22;8060;50.948;3.146;2023-09-19T14:43:52;20.40;99.90
15922;DHT22;8060;50.948;3.146;2023-09-19T14:46:22;20.40;99.90
15922;DHT22;8060;50.948;3.146;2023-09-19T14:48:51;20.30;99.90
15922;DHT22;8060;50.948;3.146;2023-09-19T14:51:19;20.20;99.90
15922;DHT22;8060;50.948;3.146;2023-09-19T14:53:50;20.10;99.90
15922;DHT22;8060;50.948;3.146;2023-09-19T14:56:18;20.10;99.90
15922;DHT22;8060;50.948;3.146;2023-09-19T14:58:47;20.10;99.90
15922;DHT22;8060;50.948;3.146;2023-09-19T15:01:15;20.10;99.90
15922;DHT22;8060;50.948;3.146;2023-09-19T15:03:43;20.10;99.90
15922;DHT22;8060;50.948;3.146;2023-09-19T15:06:13;20.00;99.90
15922;DHT22;8060;50.948;3.146;2023-09-19T15:08:45;20.00;99.90
15922;DHT22;8060;50.948;3.146;2023-09-19T15:11:16;19.90;99.90
15922;DHT22;8060;50.948;3.146;2023-09-19T15:13:46;19.90;99.90
15922;DHT22;8060;50.948;3.146;2023-09-19T15:16:14;19.90;99.90
15922;DHT22;8060;50.948;3.146;2023-09-19T15:18:44;19.90;99.90
15922;DHT22;8060;50.948;3.146;2023-09-19T15:21:17;19.80;99.90
15922;DHT22;8060;50.948;3.146;2023-09-19T15:23:46;19.70;99.90
15922;DHT22;8060;50.948;3.146;2023-09-19T15:26:17;19.70;99.90
15922;DHT22;8060;50.948;3.146;2023-09-19T15:28:50;19.70;99.90
15922;DHT22;8060;50.948;3.146;2023-09-19T15:31:19;19.70;99.90
15922;DHT22;8060;50.948;3.146;2023-09-19T15:33:49;19.70;99.90
15922;DHT22;8060;50.948;3.146;2023-09-19T15:36:17;19.70;99.90
15922;DHT22;8060;50.948;3.146;2023-09-19T15:38:59;19.60;99.90
15922;DHT22;8060;50.948;3.146;2023-09-19T15:41:31;19.60;99.90
15922;DHT22;8060;50.948;3.146;2023-09-19T15:44:00;19.50;99.90
15922;DHT22;8060;50.948;3.146;2023-09-19T15:46:29;19.50;99.90
15922;DHT22;8060;50.948;3.146;2023-09-19T15:48:58;19.40;99.90
15922;DHT22;8060;50.948;3.146;2023-09-19T15:51:27;19.40;99.90
15922;DHT22;8060;50.948;3.146;2023-09-19T15:53:57;19.30;99.90
15922;DHT22;8060;50.948;3.146;2023-09-19T15:56:28;19.30;99.90
15922;DHT22;8060;50.948;3.146;2023-09-19T15:58:56;19.20;99.90
15922;DHT22;8060;50.948;3.146;2023-09-19T16:01:25;19.20;99.90
15922;DHT22;8060;50.948;3.146;2023-09-19T16:03:54;19.10;99.90
15922;DHT22;8060;50.948;3.146;2023-09-19T16:06:24;19.10;99.90
15922;DHT22;8060;50.948;3.146;2023-09-19T16:08:54;19.00;99.90
15922;DHT22;8060;50.948;3.146;2023-09-19T16:11:26;18.90;99.90
15922;DHT22;8060;50.948;3.146;2023-09-19T16:13:56;18.90;99.90
15922;DHT22;8060;50.948;3.146;2023-09-19T16:16:26;18.80;99.90
15922;DHT22;8060;50.948;3.146;2023-09-19T16:18:58;18.70;99.90
15922;DHT22;8060;50.948;3.146;2023-09-19T16:21:29;18.70;99.90
15922;DHT22;8060;50.948;3.146;2023-09-19T16:23:59;18.60;99.90
15922;DHT22;8060;50.948;3.146;2023-09-19T16:26:28;18.60;99.90
15922;DHT22;8060;50.948;3.146;2023-09-19T16:28:59;18.50;99.90
15922;DHT22;8060;50.948;3.146;2023-09-19T16:31:29;18.40;99.90
15922;DHT22;8060;50.948;3.146;2023-09-19T16:33:59;18.50;99.90
15922;DHT22;8060;50.948;3.146;2023-09-19T16:36:28;18.50;99.90
15922;DHT22;8060;50.948;3.146;2023-09-19T16:38:58;18.50;99.90
15922;DHT22;8060;50.948;3.146;2023-09-19T16:41:27;18.60;99.90
15922;DHT22;8060;50.948;3.146;2023-09-19T16:43:58;18.60;99.90
15922;DHT22;8060;50.948;3.146;2023-09-19T16:46:26;18.40;99.90
15922;DHT22;8060;50.948;3.146;2023-09-19T16:48:54;18.50;99.90
15922;DHT22;8060;50.948;3.146;2023-09-19T16:51:25;18.50;99.90
15922;DHT22;8060;50.948;3.146;2023-09-19T16:53:54;18.40;99.90
15922;DHT22;8060;50.948;3.146;2023-09-19T16:56:23;18.40;99.90
